Time;durP1;ratioP1;P1;durP2;ratioP2;P2;SDS_P1;SDS_P2;PMS_P1;PMS_P2;Temp;Humidity;BMP_temperature;BMP_pressure;BME280_temperature;BME280_humidity;BME280_pressure;Samples;Min_cycle;Max_cycle;Signal;HPM_P1;HPM_P2
2023/05/17 00:02:02;;;;;;;2.90;1.20;;;12.30;99.90;;;;;;7384351;19;20143;-74
2023/05/17 00:04:28;;;;;;;3.57;1.13;;;12.30;99.90;;;;;;7380333;19;20139;-74
2023/05/17 00:06:54;;;;;;;3.13;0.90;;;12.20;99.90;;;;;;7384103;19;20135;-75
2023/05/17 00:09:19;;;;;;;3.57;0.90;;;12.30;99.90;;;;;;7386129;19;20214;-74
2023/05/17 00:11:45;;;;;;;1.97;0.93;;;12.10;99.90;;;;;;7384835;19;20147;-73
2023/05/17 00:14:11;;;;;;;3.33;1.07;;;12.10;99.90;;;;;;7385776;19;20674;-74
2023/05/17 00:16:37;;;;;;;2.80;1.30;;;12.10;99.90;;;;;;7386414;19;20145;-75
2023/05/17 00:19:03;;;;;;;5.63;1.20;;;12.00;99.90;;;;;;7386858;19;20172;-75
2023/05/17 00:21:28;;;;;;;4.53;1.10;;;12.10;99.90;;;;;;7391411;19;20158;-73
2023/05/17 00:23:54;;;;;;;2.33;0.97;;;12.10;99.90;;;;;;7385545;19;20586;-75
2023/05/17 00:26:20;;;;;;;1.47;0.80;;;12.00;99.90;;;;;;7393086;19;20150;-74
2023/05/17 00:28:46;;;;;;;1.27;0.80;;;12.00;99.90;;;;;;7390282;19;20167;-75
2023/05/17 00:31:11;;;;;;;4.47;1.00;;;11.90;99.90;;;;;;7391172;19;20134;-75
2023/05/17 00:33:37;;;;;;;0.90;0.80;;;11.50;99.90;;;;;;7391855;19;20146;-75
2023/05/17 00:36:06;;;;;;;2.90;1.23;;;11.70;99.90;;;;;;7390818;19;20146;-74
2023/05/17 00:38:32;;;;;;;1.80;1.10;;;11.70;99.90;;;;;;7391134;19;20146;-75
2023/05/17 00:40:57;;;;;;;2.47;0.80;;;11.80;99.90;;;;;;7390471;19;20847;-74
2023/05/17 00:43:24;;;;;;;2.90;0.80;;;11.90;99.90;;;;;;7390425;19;20146;-73
2023/05/17 00:45:51;;;;;;;1.23;0.80;;;11.90;99.90;;;;;;7389569;19;20150;-74
2023/05/17 00:48:19;;;;;;;2.10;1.00;;;12.00;99.90;;;;;;7393020;19;20509;-75
2023/05/17 00:50:46;;;;;;;2.13;0.90;;;12.10;99.90;;;;;;7387626;19;20460;-75
2023/05/17 00:53:15;;;;;;;2.73;1.10;;;11.80;99.90;;;;;;7393917;19;20173;-74
2023/05/17 00:55:44;;;;;;;3.23;1.43;;;11.80;99.90;;;;;;7391039;19;20141;-74
2023/05/17 00:58:11;;;;;;;1.53;0.93;;;11.90;99.90;;;;;;7390263;19;20547;-74
2023/05/17 01:00:37;;;;;;;3.03;1.30;;;11.90;99.90;;;;;;7389057;19;20161;-74
2023/05/17 01:03:03;;;;;;;3.50;1.30;;;11.90;99.90;;;;;;7389922;19;20607;-75
2023/05/17 01:05:29;;;;;;;4.40;1.63;;;12.00;99.90;;;;;;7389495;19;20167;-74
2023/05/17 01:07:55;;;;;;;2.40;0.80;;;11.80;99.90;;;;;;7389113;19;20139;-74
2023/05/17 01:10:39;;;;;;;3.40;0.90;;;11.70;99.90;;;;;;7388008;19;20609;-74
2023/05/17 01:13:09;;;;;;;2.43;1.10;;;11.80;99.90;;;;;;7388379;19;20146;-75
2023/05/17 01:15:41;;;;;;;3.20;0.90;;;11.80;99.90;;;;;;7391710;19;20146;-74
2023/05/17 01:18:20;;;;;;;4.67;0.93;;;11.80;99.90;;;;;;7388592;19;20151;-74
2023/05/17 01:20:47;;;;;;;2.13;0.70;;;11.80;99.90;;;;;;7390147;19;20153;-74
2023/05/17 01:23:47;;;;;;;1.40;0.80;;;11.70;99.90;;;;;;7389060;19;20174;-74
2023/05/17 01:26:37;;;;;;;2.03;1.07;;;11.70;99.90;;;;;;7391034;19;20938;-74
2023/05/17 01:29:04;;;;;;;4.30;1.30;;;11.80;99.90;;;;;;7388859;19;20167;-74
2023/05/17 01:31:30;;;;;;;1.63;1.00;;;11.90;99.90;;;;;;7389198;19;20141;-74
2023/05/17 01:33:57;;;;;;;3.93;1.13;;;11.80;99.90;;;;;;7390336;19;20171;-74
2023/05/17 01:36:25;;;;;;;1.63;0.77;;;11.90;99.90;;;;;;7389736;19;20517;-75
2023/05/17 01:38:51;;;;;;;4.97;0.90;;;11.60;99.90;;;;;;7387049;19;20213;-74
2023/05/17 01:41:28;;;;;;;2.33;1.00;;;11.50;99.90;;;;;;7386998;19;20182;-71
2023/05/17 01:44:03;;;;;;;3.63;1.20;;;11.60;99.90;;;;;;7388475;19;20150;-74
2023/05/17 01:46:44;;;;;;;2.33;1.00;;;11.70;99.90;;;;;;7390025;19;20618;-75
2023/05/17 01:49:36;;;;;;;4.03;1.07;;;11.80;99.90;;;;;;7387095;19;20146;-73
2023/05/17 01:52:23;;;;;;;3.47;1.00;;;11.80;99.90;;;;;;7388196;19;20139;-75
2023/05/17 01:55:15;;;;;;;3.00;0.90;;;11.80;99.90;;;;;;7387600;19;20192;-75
2023/05/17 01:57:45;;;;;;;1.70;0.75;;;11.70;99.90;;;;;;7386151;19;20139;-74
2023/05/17 02:00:13;;;;;;;1.57;0.80;;;11.70;99.90;;;;;;7386256;19;20146;-75
2023/05/17 02:02:38;;;;;;;3.70;0.97;;;11.70;99.90;;;;;;7388045;19;20149;-76
2023/05/17 02:05:04;;;;;;;2.50;1.00;;;11.40;99.90;;;;;;7385873;19;20786;-74
2023/05/17 02:07:30;;;;;;;1.27;0.70;;;11.50;99.90;;;;;;7387344;19;20154;-75
2023/05/17 02:09:56;;;;;;;2.60;1.10;;;11.60;99.90;;;;;;7387671;19;20474;-74
2023/05/17 02:12:22;;;;;;;3.17;0.93;;;11.00;99.90;;;;;;7389269;19;20164;-75
2023/05/17 02:14:47;;;;;;;1.27;0.73;;;11.00;99.90;;;;;;7388034;19;20153;-74
2023/05/17 02:17:13;;;;;;;1.50;0.87;;;11.20;99.90;;;;;;7388926;19;20164;-75
2023/05/17 02:19:39;;;;;;;4.93;1.00;;;11.30;99.90;;;;;;7387517;19;20890;-73
2023/05/17 02:22:05;;;;;;;4.67;1.00;;;11.40;99.90;;;;;;7387593;19;20146;-75
2023/05/17 02:24:30;;;;;;;5.50;1.20;;;11.40;99.90;;;;;;7388459;19;20127;-73
2023/05/17 02:26:56;;;;;;;1.83;1.00;;;11.40;99.90;;;;;;7378916;19;20135;-75
2023/05/17 02:29:22;;;;;;;2.83;1.00;;;11.30;99.90;;;;;;7389523;19;20136;-75
2023/05/17 02:31:48;;;;;;;1.90;1.00;;;11.30;99.90;;;;;;7389756;19;20632;-74
2023/05/17 02:34:13;;;;;;;2.53;1.00;;;11.30;99.90;;;;;;7387843;19;20139;-75
2023/05/17 02:36:39;;;;;;;2.47;1.20;;;11.50;99.90;;;;;;7388964;19;20141;-74
2023/05/17 02:39:05;;;;;;;1.93;1.10;;;11.50;99.90;;;;;;7385093;19;20134;-75
2023/05/17 02:41:31;;;;;;;2.17;1.10;;;11.50;99.90;;;;;;7385859;19;20151;-74
2023/05/17 02:43:57;;;;;;;3.83;1.00;;;11.50;99.90;;;;;;7387383;19;20218;-75
2023/05/17 02:46:22;;;;;;;1.43;0.87;;;11.50;99.90;;;;;;7388497;19;20134;-73
2023/05/17 02:48:48;;;;;;;2.73;1.30;;;11.50;99.90;;;;;;7387908;19;20135;-74
2023/05/17 02:51:14;;;;;;;1.63;1.07;;;11.40;99.90;;;;;;7387253;19;20190;-74
2023/05/17 02:53:40;;;;;;;3.63;1.50;;;11.50;99.90;;;;;;7386945;19;20147;-76
2023/05/17 02:56:08;;;;;;;4.33;1.03;;;11.30;99.90;;;;;;7387049;19;20134;-75
2023/05/17 02:58:36;;;;;;;3.27;1.30;;;11.20;99.90;;;;;;7388110;19;20154;-75
2023/05/17 03:01:03;;;;;;;2.07;0.90;;;11.30;99.90;;;;;;7387412;19;20147;-74
2023/05/17 03:03:28;;;;;;;2.37;1.10;;;11.40;99.90;;;;;;7384071;19;20131;-74
2023/05/17 03:05:58;;;;;;;4.23;1.00;;;11.40;99.90;;;;;;7387385;19;20495;-74
2023/05/17 03:08:25;;;;;;;2.87;1.00;;;11.30;99.90;;;;;;7385561;19;20248;-75
2023/05/17 03:10:51;;;;;;;1.77;0.90;;;11.50;99.90;;;;;;7386350;19;20154;-74
2023/05/17 03:13:16;;;;;;;3.27;1.17;;;11.30;99.90;;;;;;7386664;19;20594;-74
2023/05/17 03:15:42;;;;;;;1.77;0.80;;;11.20;99.90;;;;;;7386158;19;20721;-73
2023/05/17 03:18:08;;;;;;;4.73;1.10;;;11.10;99.90;;;;;;7386090;19;20146;-75
2023/05/17 03:20:33;;;;;;;1.40;0.70;;;11.20;99.90;;;;;;7384704;19;20147;-75
2023/05/17 03:22:59;;;;;;;1.90;0.97;;;11.00;99.90;;;;;;7384300;19;20645;-75
2023/05/17 03:25:25;;;;;;;1.73;1.00;;;11.00;99.90;;;;;;7387725;19;20142;-74
2023/05/17 03:27:50;;;;;;;5.77;1.20;;;11.10;99.90;;;;;;7386839;19;20602;-75
2023/05/17 03:30:16;;;;;;;4.43;0.90;;;11.00;99.90;;;;;;7386520;19;20397;-74
2023/05/17 03:32:42;;;;;;;3.03;0.73;;;10.60;99.90;;;;;;7387729;19;20150;-75
2023/05/17 03:35:08;;;;;;;1.80;0.93;;;10.10;99.90;;;;;;7385632;19;20158;-75
2023/05/17 03:37:34;;;;;;;3.47;1.27;;;10.20;99.90;;;;;;7385107;19;20150;-74
2023/05/17 03:40:00;;;;;;;1.23;0.80;;;10.60;99.90;;;;;;7383197;19;20143;-74
2023/05/17 03:42:26;;;;;;;2.13;0.97;;;10.80;99.90;;;;;;7380761;19;21377;-75
2023/05/17 03:44:52;;;;;;;2.63;0.90;;;10.60;99.90;;;;;;7386099;19;20528;-75
2023/05/17 03:47:22;;;;;;;2.87;1.10;;;10.80;99.90;;;;;;7385598;19;20149;-74
2023/05/17 03:49:48;;;;;;;3.00;1.10;;;10.90;99.90;;;;;;7386854;19;20126;-75
2023/05/17 03:52:14;;;;;;;2.70;1.00;;;11.10;99.90;;;;;;7383278;19;20141;-75
2023/05/17 03:54:40;;;;;;;1.53;0.93;;;11.10;99.90;;;;;;7387889;19;20146;-77
2023/05/17 03:57:05;;;;;;;2.50;1.00;;;11.00;99.90;;;;;;7385210;19;20172;-75
2023/05/17 03:59:31;;;;;;;3.23;1.10;;;11.00;99.90;;;;;;7386612;19;20138;-74
2023/05/17 04:01:57;;;;;;;2.97;1.10;;;10.80;99.90;;;;;;7385673;19;20138;-73
2023/05/17 04:04:23;;;;;;;2.37;0.90;;;10.70;99.90;;;;;;7387441;19;20680;-75
2023/05/17 04:06:48;;;;;;;1.43;0.80;;;10.80;99.90;;;;;;7385976;19;20213;-75
2023/05/17 04:09:14;;;;;;;2.10;0.90;;;10.90;99.90;;;;;;7385478;19;20154;-74
2023/05/17 04:11:41;;;;;;;1.57;1.00;;;10.90;99.90;;;;;;7386982;19;20139;-74
2023/05/17 04:14:07;;;;;;;4.20;1.13;;;10.80;99.90;;;;;;7387244;19;20139;-73
2023/05/17 04:16:33;;;;;;;3.07;1.13;;;10.80;99.90;;;;;;7386091;19;20139;-75
2023/05/17 04:18:59;;;;;;;6.77;1.33;;;10.90;99.90;;;;;;7382523;19;20158;-75
2023/05/17 04:21:25;;;;;;;3.27;1.43;;;11.10;99.90;;;;;;7385203;19;20176;-75
2023/05/17 04:23:51;;;;;;;6.63;1.10;;;11.20;99.90;;;;;;7382999;19;20524;-75
2023/05/17 04:26:17;;;;;;;3.33;1.00;;;11.20;99.90;;;;;;7385436;19;20169;-74
2023/05/17 04:28:43;;;;;;;4.50;1.30;;;11.20;99.90;;;;;;7386681;19;20142;-75
2023/05/17 04:31:09;;;;;;;4.87;1.87;;;11.30;99.90;;;;;;7383309;19;20157;-74
2023/05/17 04:33:36;;;;;;;3.63;1.07;;;11.40;99.90;;;;;;7384640;19;20142;-74
2023/05/17 04:36:02;;;;;;;3.53;0.90;;;11.30;99.90;;;;;;7384615;19;20745;-75
2023/05/17 04:38:28;;;;;;;2.27;0.90;;;11.30;99.90;;;;;;7384325;19;20153;-74
2023/05/17 04:41:04;;;;;;;2.90;1.10;;;11.30;99.90;;;;;;7385109;19;20135;-75
2023/05/17 04:43:31;;;;;;;2.53;1.13;;;11.20;99.90;;;;;;7382604;19;20505;-74
2023/05/17 04:45:58;;;;;;;3.83;1.00;;;11.10;99.90;;;;;;7384877;19;20154;-74
2023/05/17 04:48:25;;;;;;;3.73;1.30;;;11.20;99.90;;;;;;7384256;19;20145;-74
2023/05/17 04:50:51;;;;;;;5.30;1.10;;;11.20;99.90;;;;;;7382367;19;20885;-75
2023/05/17 04:53:17;;;;;;;3.40;1.20;;;11.30;99.90;;;;;;7384471;19;20158;-74
2023/05/17 04:55:43;;;;;;;3.83;1.10;;;11.20;99.90;;;;;;7386024;19;20220;-75
2023/05/17 04:58:09;;;;;;;2.57;1.10;;;11.20;99.90;;;;;;7383798;19;20139;-74
2023/05/17 05:00:35;;;;;;;3.00;1.10;;;11.10;99.90;;;;;;7383637;19;20150;-75
2023/05/17 05:03:07;;;;;;;3.03;1.00;;;11.10;99.90;;;;;;7381687;19;20238;-75
2023/05/17 05:05:33;;;;;;;2.03;0.90;;;11.20;99.90;;;;;;7389302;19;20151;-74
2023/05/17 05:07:58;;;;;;;3.70;1.20;;;11.30;99.90;;;;;;7389397;19;20206;-75
2023/05/17 05:10:27;;;;;;;1.83;0.90;;;11.20;99.90;;;;;;7390749;19;20229;-75
2023/05/17 05:12:53;;;;;;;4.33;1.20;;;11.10;99.90;;;;;;7391575;19;20169;-73
2023/05/17 05:15:19;;;;;;;2.40;1.13;;;11.10;99.90;;;;;;7391236;19;20201;-74
2023/05/17 05:17:47;;;;;;;2.70;1.37;;;11.20;99.90;;;;;;7389950;19;20260;-74
2023/05/17 05:20:13;;;;;;;3.67;1.07;;;11.20;99.90;;;;;;7386942;19;20190;-74
2023/05/17 05:22:38;;;;;;;1.60;0.80;;;11.20;99.90;;;;;;7387873;19;20131;-74
2023/05/17 05:25:05;;;;;;;3.73;1.03;;;11.30;99.90;;;;;;7389660;19;20214;-74
2023/05/17 05:27:30;;;;;;;3.17;1.20;;;11.30;99.90;;;;;;7391602;19;20131;-75
2023/05/17 05:29:56;;;;;;;2.60;1.20;;;11.20;99.90;;;;;;7387607;19;20146;-74
2023/05/17 05:32:22;;;;;;;2.10;1.13;;;11.10;99.90;;;;;;7388422;19;20146;-70
2023/05/17 05:34:47;;;;;;;7.23;1.50;;;11.20;99.90;;;;;;7389634;19;20142;-73
2023/05/17 05:37:13;;;;;;;4.70;1.40;;;11.30;99.90;;;;;;7389346;19;20187;-72
2023/05/17 05:39:39;;;;;;;3.40;1.10;;;11.20;99.90;;;;;;7392504;19;20146;-73
2023/05/17 05:42:05;;;;;;;4.17;1.23;;;11.30;99.90;;;;;;7386046;19;20650;-73
2023/05/17 05:44:31;;;;;;;2.70;1.13;;;11.10;99.90;;;;;;7389709;19;20142;-73
2023/05/17 05:47:03;;;;;;;2.43;1.40;;;11.30;99.90;;;;;;7387558;19;20574;-74
2023/05/17 05:49:29;;;;;;;3.00;1.30;;;11.50;99.90;;;;;;7388976;19;20147;-73
2023/05/17 05:51:54;;;;;;;2.13;1.50;;;11.60;99.90;;;;;;7387892;19;20154;-74
2023/05/17 05:54:20;;;;;;;3.43;1.60;;;11.70;99.90;;;;;;7388225;19;20218;-73
2023/05/17 05:56:46;;;;;;;5.43;1.77;;;11.70;99.90;;;;;;7387325;19;20134;-74
2023/05/17 05:59:12;;;;;;;2.77;1.43;;;11.60;99.90;;;;;;7387023;19;20169;-73
2023/05/17 06:01:37;;;;;;;3.40;1.20;;;11.60;99.90;;;;;;7387003;19;20150;-74
2023/05/17 06:04:04;;;;;;;9.10;1.57;;;11.60;99.90;;;;;;7388998;19;20154;-75
2023/05/17 06:06:30;;;;;;;3.07;1.37;;;11.60;99.90;;;;;;7388449;19;20221;-73
2023/05/17 06:08:55;;;;;;;4.17;1.50;;;11.60;99.90;;;;;;7386657;19;20143;-74
2023/05/17 06:11:23;;;;;;;3.27;1.50;;;11.60;99.90;;;;;;7387774;19;20163;-73
2023/05/17 06:13:50;;;;;;;5.10;1.70;;;11.60;99.90;;;;;;7385571;19;20175;-74
2023/05/17 06:16:15;;;;;;;7.20;1.70;;;11.60;99.90;;;;;;7385002;19;20142;-75
2023/05/17 06:18:41;;;;;;;4.03;1.40;;;11.70;99.90;;;;;;7386845;19;20147;-75
2023/05/17 06:21:07;;;;;;;8.47;2.30;;;12.10;99.90;;;;;;7386493;19;20218;-76
2023/05/17 06:23:33;;;;;;;6.00;1.67;;;12.80;99.90;;;;;;7386442;19;20498;-75
2023/05/17 06:26:00;;;;;;;3.00;1.70;;;13.70;99.90;;;;;;7385519;19;20151;-76
2023/05/17 06:28:25;;;;;;;4.30;1.80;;;14.80;99.90;;;;;;7398802;19;20139;-76
2023/05/17 06:30:51;;;;;;;4.23;1.83;;;15.50;99.90;;;;;;7384541;19;20514;-76
2023/05/17 06:33:17;;;;;;;5.80;1.87;;;16.40;99.90;;;;;;7388039;19;20147;-75
2023/05/17 06:35:43;;;;;;;4.03;1.40;;;17.30;99.90;;;;;;7386167;19;20166;-75
2023/05/17 06:38:09;;;;;;;3.90;1.83;;;17.60;99.90;;;;;;7387971;19;20593;-76
2023/05/17 06:40:35;;;;;;;2.50;1.40;;;17.60;99.90;;;;;;7386784;19;20170;-76
2023/05/17 06:43:01;;;;;;;2.87;1.30;;;17.80;99.90;;;;;;7385948;19;20184;-77
2023/05/17 06:45:27;;;;;;;3.13;1.70;;;18.00;99.90;;;;;;7388678;19;20130;-76
2023/05/17 06:47:52;;;;;;;4.17;1.80;;;18.30;99.90;;;;;;7389020;19;20153;-77
2023/05/17 06:50:18;;;;;;;4.13;1.43;;;18.60;99.90;;;;;;7388160;19;20154;-75
2023/05/17 06:52:45;;;;;;;4.93;1.73;;;18.30;99.90;;;;;;7389220;19;20153;-75
2023/05/17 06:55:11;;;;;;;2.97;1.48;;;17.70;99.90;;;;;;7387716;19;20147;-76
2023/05/17 06:57:36;;;;;;;4.22;1.38;;;16.80;99.90;;;;;;7388078;19;20481;-76
2023/05/17 07:00:05;;;;;;;4.30;1.67;;;16.30;99.90;;;;;;7387502;19;20142;-78
2023/05/17 07:02:31;;;;;;;6.07;2.27;;;16.10;99.90;;;;;;7387230;19;20146;-76
2023/05/17 07:04:57;;;;;;;2.90;1.90;;;16.20;99.90;;;;;;7387162;19;20214;-76
2023/05/17 07:07:23;;;;;;;5.47;2.00;;;16.20;99.90;;;;;;7387779;19;20150;-76
2023/05/17 07:09:48;;;;;;;6.45;2.25;;;16.10;99.90;;;;;;7386772;19;20170;-77
2023/05/17 07:12:14;;;;;;;4.80;1.90;;;15.90;99.90;;;;;;7388331;19;20198;-77
2023/05/17 07:14:40;;;;;;;3.20;1.70;;;15.80;99.90;;;;;;7387176;19;20501;-76
2023/05/17 07:17:06;;;;;;;3.73;1.67;;;15.80;99.90;;;;;;7388340;19;20245;-76
2023/05/17 07:19:31;;;;;;;4.00;1.77;;;15.80;99.90;;;;;;7384927;19;20504;-75
2023/05/17 07:21:57;;;;;;;4.30;1.90;;;16.00;99.90;;;;;;7385420;19;20226;-76
2023/05/17 07:24:23;;;;;;;6.07;2.00;;;15.80;99.90;;;;;;7386864;19;20142;-75
2023/05/17 07:26:49;;;;;;;5.63;1.87;;;15.70;99.90;;;;;;7388254;19;20198;-75
2023/05/17 07:29:14;;;;;;;4.60;1.93;;;15.70;99.90;;;;;;7381667;19;20146;-75
2023/05/17 07:31:40;;;;;;;2.67;1.60;;;15.80;99.90;;;;;;7386899;19;20146;-78
2023/05/17 07:34:06;;;;;;;3.53;2.20;;;15.50;99.90;;;;;;7387816;19;20141;-75
2023/05/17 07:36:32;;;;;;;4.65;2.13;;;15.70;99.90;;;;;;7387168;19;20158;-75
2023/05/17 07:38:57;;;;;;;7.47;2.38;;;15.80;99.90;;;;;;7384230;19;20184;-75
2023/05/17 07:41:25;;;;;;;3.77;1.70;;;15.80;99.90;;;;;;7386554;19;20131;-75
2023/05/17 07:43:51;;;;;;;4.50;1.70;;;15.40;99.90;;;;;;7377425;19;20582;-75
2023/05/17 07:46:18;;;;;;;3.97;2.00;;;14.60;99.90;;;;;;7394699;19;20134;-76
2023/05/17 07:48:44;;;;;;;6.23;2.07;;;14.10;99.90;;;;;;7385981;19;20146;-75
2023/05/17 07:51:11;;;;;;;4.87;2.67;;;14.00;99.90;;;;;;7386832;19;20159;-75
2023/05/17 07:53:38;;;;;;;5.68;2.50;;;14.30;99.90;;;;;;7384837;19;20146;-75
2023/05/17 07:56:04;;;;;;;4.00;1.80;;;14.20;99.90;;;;;;7385352;19;20229;-75
2023/05/17 07:58:30;;;;;;;5.33;2.20;;;14.40;99.90;;;;;;7385242;19;20155;-76
2023/05/17 08:00:56;;;;;;;4.73;2.30;;;14.80;99.90;;;;;;7386731;19;20145;-76
2023/05/17 08:03:22;;;;;;;9.90;5.37;;;15.20;99.90;;;;;;7382432;19;20147;-75
2023/05/17 08:05:48;;;;;;;6.97;3.20;;;15.50;99.90;;;;;;7386875;19;20166;-75
2023/05/17 08:08:15;;;;;;;4.75;2.30;;;15.40;99.90;;;;;;7383362;19;20130;-74
2023/05/17 08:10:42;;;;;;;7.03;2.28;;;15.60;99.90;;;;;;7384806;19;20598;-75
2023/05/17 08:13:08;;;;;;;5.32;1.95;;;15.60;99.90;;;;;;7385428;19;20502;-75
2023/05/17 08:15:36;;;;;;;3.35;1.58;;;15.70;99.90;;;;;;7388689;19;20147;-76
2023/05/17 08:18:02;;;;;;;6.63;2.08;;;15.80;99.90;;;;;;7383001;19;20147;-74
2023/05/17 08:20:28;;;;;;;9.55;4.00;;;15.70;99.90;;;;;;7380796;19;20245;-76
2023/05/17 08:22:53;;;;;;;4.60;2.77;;;15.30;99.90;;;;;;7382343;19;20142;-78
2023/05/17 08:25:20;;;;;;;4.82;3.15;;;15.40;99.90;;;;;;7384477;19;20130;-75
2023/05/17 08:27:57;;;;;;;4.45;2.22;;;16.00;99.90;;;;;;7383248;19;20138;-76
2023/05/17 08:30:23;;;;;;;5.63;1.90;;;16.80;99.90;;;;;;7384975;19;20142;-74
2023/05/17 08:32:49;;;;;;;4.78;2.10;;;17.00;99.90;;;;;;7386164;19;20444;-75
2023/05/17 08:35:15;;;;;;;3.65;2.22;;;16.60;99.90;;;;;;7384221;19;20154;-76
2023/05/17 08:37:41;;;;;;;3.70;2.47;;;16.10;99.90;;;;;;7385377;19;20625;-75
2023/05/17 08:40:08;;;;;;;3.92;2.35;;;15.90;99.90;;;;;;7387099;19;20165;-75
2023/05/17 08:42:35;;;;;;;3.13;1.95;;;15.80;99.90;;;;;;7387517;19;20486;-75
2023/05/17 08:45:01;;;;;;;5.38;2.28;;;15.80;99.90;;;;;;7391867;19;20591;-74
2023/05/17 08:47:30;;;;;;;6.60;3.92;;;15.80;99.90;;;;;;7396417;19;20159;-76
2023/05/17 08:50:03;;;;;;;6.82;2.60;;;16.10;99.90;;;;;;7393350;19;20150;-75
2023/05/17 08:52:39;;;;;;;3.92;2.17;;;16.20;99.90;;;;;;7393341;19;20516;-75
2023/05/17 08:55:07;;;;;;;3.92;2.30;;;16.10;99.90;;;;;;7390039;19;20146;-70
2023/05/17 08:57:37;;;;;;;6.15;2.15;;;16.00;99.90;;;;;;7389874;19;20145;-70
2023/05/17 09:00:13;;;;;;;4.00;2.00;;;15.90;99.90;;;;;;7387349;19;20138;-73
2023/05/17 09:02:41;;;;;;;4.88;2.10;;;15.60;99.90;;;;;;7388274;19;20687;-69
2023/05/17 09:05:07;;;;;;;3.80;1.88;;;15.20;99.90;;;;;;7391034;19;20172;-71
2023/05/17 09:07:34;;;;;;;7.38;2.70;;;15.10;99.90;;;;;;7390661;19;20158;-71
2023/05/17 09:10:04;;;;;;;5.43;2.43;;;14.90;99.90;;;;;;7390794;19;20142;-75
2023/05/17 09:12:34;;;;;;;3.93;2.47;;;14.80;99.90;;;;;;7391352;19;20139;-73
2023/05/17 09:15:14;;;;;;;6.83;2.80;;;15.10;99.90;;;;;;7391770;19;20232;-75
2023/05/17 09:17:41;;;;;;;4.17;2.10;;;14.90;99.90;;;;;;7391147;19;20146;-74
2023/05/17 09:20:08;;;;;;;3.33;2.28;;;14.90;99.90;;;;;;7379638;19;20194;-75
2023/05/17 09:22:35;;;;;;;4.80;2.40;;;14.90;99.90;;;;;;7388866;19;20151;-75
2023/05/17 09:25:03;;;;;;;5.35;2.20;;;15.00;99.90;;;;;;7390033;19;20160;-74
2023/05/17 09:27:31;;;;;;;5.13;2.10;;;15.10;99.90;;;;;;7392325;19;20223;-74
2023/05/17 09:29:57;;;;;;;8.18;2.35;;;15.00;99.90;;;;;;7387462;19;20141;-75
2023/05/17 09:32:23;;;;;;;4.85;2.08;;;15.30;99.90;;;;;;7390612;19;20130;-75
2023/05/17 09:34:50;;;;;;;3.83;1.90;;;15.40;99.90;;;;;;7389843;19;20127;-75
2023/05/17 09:37:17;;;;;;;3.92;1.75;;;15.50;99.90;;;;;;7392510;19;20134;-76
2023/05/17 09:39:45;;;;;;;3.75;2.00;;;15.70;99.90;;;;;;7391256;19;20202;-75
2023/05/17 09:42:12;;;;;;;5.55;2.22;;;15.80;99.90;;;;;;7386753;19;20184;-76
2023/05/17 09:44:58;;;;;;;5.45;2.40;;;15.70;99.90;;;;;;7391424;19;20138;-75
2023/05/17 09:47:29;;;;;;;4.00;2.28;;;15.50;99.90;;;;;;7387123;19;20131;-75
2023/05/17 09:49:57;;;;;;;2.85;1.67;;;15.30;99.90;;;;;;7384967;19;20626;-76
2023/05/17 09:52:23;;;;;;;3.38;2.25;;;15.20;99.90;;;;;;7389989;19;20183;-77
2023/05/17 09:54:55;;;;;;;2.97;2.00;;;15.30;99.90;;;;;;7385192;19;20134;-75
2023/05/17 09:57:24;;;;;;;4.40;2.97;;;15.50;99.90;;;;;;7388598;19;20142;-76
2023/05/17 09:59:53;;;;;;;3.92;2.63;;;15.40;99.90;;;;;;7384788;19;20255;-75
2023/05/17 10:02:21;;;;;;;5.95;2.40;;;15.50;99.90;;;;;;7392096;19;20521;-77
2023/05/17 10:04:57;;;;;;;5.97;2.90;;;15.40;99.90;;;;;;7392965;19;20146;-76
2023/05/17 10:07:25;;;;;;;3.42;2.22;;;15.20;99.90;;;;;;7389035;19;20135;-74
2023/05/17 10:09:54;;;;;;;3.10;1.65;;;15.30;99.90;;;;;;7384861;19;20161;-75
2023/05/17 10:12:28;;;;;;;3.78;2.30;;;15.50;99.90;;;;;;7388187;19;20143;-76
2023/05/17 10:14:55;;;;;;;4.50;1.95;;;15.70;99.90;;;;;;7389321;19;20154;-74
2023/05/17 10:17:22;;;;;;;6.10;2.05;;;15.70;99.90;;;;;;7389828;19;20154;-76
2023/05/17 10:19:49;;;;;;;6.28;2.50;;;15.40;99.90;;;;;;7387402;19;20154;-75
2023/05/17 10:22:16;;;;;;;5.22;2.53;;;15.40;99.90;;;;;;7387869;19;20147;-75
2023/05/17 10:24:45;;;;;;;4.30;2.30;;;15.30;99.90;;;;;;7388955;19;20206;-76
2023/05/17 10:27:12;;;;;;;3.47;1.92;;;15.30;99.90;;;;;;7389651;19;20134;-76
2023/05/17 10:29:42;;;;;;;3.13;1.92;;;15.30;99.90;;;;;;7387822;19;20172;-75
2023/05/17 10:32:09;;;;;;;4.47;2.35;;;15.20;99.90;;;;;;7388101;19;20256;-75
2023/05/17 10:34:38;;;;;;;4.70;2.10;;;15.20;99.90;;;;;;7388971;19;20139;-75
2023/05/17 10:37:04;;;;;;;5.20;2.17;;;15.20;99.90;;;;;;7390713;19;20134;-74
2023/05/17 10:39:33;;;;;;;6.07;2.22;;;15.30;99.90;;;;;;7390705;19;20222;-75
2023/05/17 10:42:07;;;;;;;5.07;1.90;;;15.40;99.90;;;;;;7386171;19;20148;-77
2023/05/17 10:44:36;;;;;;;5.93;2.25;;;15.50;99.90;;;;;;7387304;19;20460;-76
2023/05/17 10:47:03;;;;;;;5.07;2.20;;;15.60;99.90;;;;;;7388064;19;20142;-75
2023/05/17 10:49:36;;;;;;;6.03;2.70;;;15.80;99.90;;;;;;7391081;19;20156;-76
2023/05/17 10:52:12;;;;;;;3.67;2.42;;;15.80;99.90;;;;;;7387913;19;20451;-77
2023/05/17 10:54:41;;;;;;;4.70;2.58;;;15.60;99.90;;;;;;7387959;19;20148;-76
2023/05/17 10:57:08;;;;;;;3.90;2.30;;;15.50;99.90;;;;;;7386851;19;20157;-77
2023/05/17 10:59:34;;;;;;;5.30;2.28;;;15.40;99.90;;;;;;7385903;19;20138;-75
2023/05/17 11:02:30;;;;;;;6.15;2.30;;;15.50;99.90;;;;;;7384514;19;20143;-76
2023/05/17 11:04:56;;;;;;;7.30;3.80;;;15.60;99.90;;;;;;7384059;19;20149;-77
2023/05/17 11:07:30;;;;;;;3.75;2.08;;;15.70;99.90;;;;;;7388950;19;20135;-77
2023/05/17 11:10:02;;;;;;;3.15;2.00;;;15.70;99.90;;;;;;7388398;19;20127;-75
2023/05/17 11:12:40;;;;;;;3.17;2.03;;;15.70;99.90;;;;;;7385482;19;20184;-76
2023/05/17 11:15:10;;;;;;;4.15;2.22;;;15.60;99.90;;;;;;7387868;19;20143;-76
2023/05/17 11:17:36;;;;;;;4.43;2.10;;;15.40;99.90;;;;;;7381736;19;20143;-77
2023/05/17 11:20:09;;;;;;;5.47;2.20;;;15.20;99.90;;;;;;7386999;19;20606;-76
2023/05/17 11:22:43;;;;;;;4.28;2.35;;;15.10;99.90;;;;;;7386288;19;20146;-76
2023/05/17 11:25:11;;;;;;;7.68;2.42;;;15.00;99.90;;;;;;7389172;19;20245;-76
2023/05/17 11:27:48;;;;;;;4.78;2.33;;;15.00;99.90;;;;;;7386886;19;20143;-76
2023/05/17 11:30:27;;;;;;;7.93;2.72;;;15.00;99.90;;;;;;7387019;19;20154;-75
2023/05/17 11:33:04;;;;;;;4.07;2.20;;;15.00;99.90;;;;;;7389744;19;20143;-76
2023/05/17 11:35:36;;;;;;;6.90;2.28;;;14.90;99.90;;;;;;7387731;19;20138;-77
2023/05/17 11:38:23;;;;;;;4.90;2.25;;;14.90;99.90;;;;;;7387077;19;20142;-76
2023/05/17 11:40:53;;;;;;;4.28;2.40;;;14.90;99.90;;;;;;7385714;19;20146;-75
2023/05/17 11:43:22;;;;;;;6.30;2.63;;;14.80;99.90;;;;;;7385447;19;20134;-75
2023/05/17 11:46:01;;;;;;;3.80;2.10;;;14.90;99.90;;;;;;7386936;19;20185;-76
2023/05/17 11:48:29;;;;;;;4.90;2.72;;;14.60;99.90;;;;;;7387154;19;20146;-77
2023/05/17 11:50:55;;;;;;;2.55;1.73;;;14.80;99.90;;;;;;7384720;19;20173;-75
2023/05/17 11:53:23;;;;;;;3.00;2.00;;;14.80;99.90;;;;;;7379953;19;20227;-76
2023/05/17 11:55:50;;;;;;;4.60;2.63;;;14.70;99.90;;;;;;7380638;19;20169;-76
2023/05/17 11:58:23;;;;;;;4.63;2.20;;;14.70;99.90;;;;;;7383321;19;20146;-74
2023/05/17 12:00:57;;;;;;;4.57;2.63;;;14.70;99.90;;;;;;7389065;19;20149;-74
2023/05/17 12:03:25;;;;;;;4.47;2.60;;;14.80;99.90;;;;;;7383264;19;20154;-75
2023/05/17 12:06:04;;;;;;;3.75;2.05;;;14.80;99.90;;;;;;7386999;19;20226;-75
2023/05/17 12:08:32;;;;;;;5.03;2.55;;;14.80;99.90;;;;;;7386244;19;20553;-76
2023/05/17 12:10:59;;;;;;;5.93;2.58;;;15.00;99.90;;;;;;7382150;19;20166;-76
2023/05/17 12:13:31;;;;;;;6.93;2.80;;;15.20;99.90;;;;;;7384598;19;20150;-76
2023/05/17 12:16:00;;;;;;;5.22;2.65;;;15.40;99.90;;;;;;7393506;19;20159;-76
2023/05/17 12:18:37;;;;;;;4.50;2.65;;;15.40;99.90;;;;;;7392571;19;20196;-77
2023/05/17 12:21:04;;;;;;;3.13;2.15;;;15.20;99.90;;;;;;7393268;19;20130;-76
2023/05/17 12:23:35;;;;;;;5.93;2.42;;;15.20;99.90;;;;;;7400933;19;20716;-76
2023/05/17 12:26:21;;;;;;;3.38;2.50;;;15.20;99.90;;;;;;7401684;19;20164;-77
2023/05/17 12:28:58;;;;;;;8.90;4.97;;;15.30;99.90;;;;;;7392103;19;20150;-76
2023/05/17 12:31:32;;;;;;;5.32;2.25;;;15.40;99.90;;;;;;7393061;19;20139;-77
2023/05/17 12:34:00;;;;;;;4.45;2.42;;;15.50;99.90;;;;;;7391780;19;20382;-77
2023/05/17 12:36:28;;;;;;;6.15;2.60;;;15.40;99.90;;;;;;7394349;19;20139;-77
2023/05/17 12:38:55;;;;;;;4.18;2.40;;;15.50;99.90;;;;;;7388408;19;20177;-75
2023/05/17 12:41:22;;;;;;;5.40;2.30;;;15.60;99.90;;;;;;7394715;19;20589;-78
2023/05/17 12:43:50;;;;;;;4.72;1.90;;;15.50;99.90;;;;;;7387896;19;20225;-75
2023/05/17 12:46:18;;;;;;;3.97;2.00;;;15.60;99.90;;;;;;7393539;19;20151;-76
2023/05/17 12:48:50;;;;;;;3.88;1.70;;;15.70;99.90;;;;;;7390552;19;20161;-76
2023/05/17 12:51:20;;;;;;;4.10;2.28;;;15.60;99.90;;;;;;7391300;19;20184;-76
2023/05/17 12:53:50;;;;;;;3.55;2.17;;;15.60;99.90;;;;;;7392653;19;20970;-76